Time;durP1;ratioP1;P1;durP2;ratioP2;P2;SDS_P1;SDS_P2;PMS_P1;PMS_P2;Temp;Humidity;BMP_temperature;BMP_pressure;BME280_temperature;BME280_humidity;BME280_pressure;Samples;Min_cycle;Max_cycle;Signal;HPM_P1;HPM_P2
2020/12/30 00:02:10;;;;;;;7.43;5.80;;;;;;;;;;5054119;28;20382;-74
2020/12/30 00:04:36;;;;;;;7.25;5.57;;;;;;;;;;5054316;28;20416;-75
2020/12/30 00:07:02;;;;;;;6.70;5.53;;;;;;;;;;5054306;28;20386;-75
2020/12/30 00:09:28;;;;;;;9.10;5.65;;;;;;;;;;5054298;28;20389;-75
2020/12/30 00:11:54;;;;;;;6.80;5.10;;;;;;;;;;5054201;28;20393;-74
2020/12/30 00:14:20;;;;;;;9.07;5.97;;;;;;;;;;5053874;28;20384;-74
2020/12/30 00:16:46;;;;;;;11.25;7.70;;;;;;;;;;5054186;28;20381;-74
2020/12/30 00:19:12;;;;;;;10.07;6.90;;;;;;;;;;5054028;28;20960;-74
2020/12/30 00:21:37;;;;;;;8.88;6.20;;;1.40;99.90;;;;;;5054077;28;20724;-74
2020/12/30 00:24:03;;;;;;;11.97;7.63;;;;;;;;;;5053879;28;20434;-75
2020/12/30 00:26:29;;;;;;;8.55;6.57;;;1.40;99.90;;;;;;5053887;28;20381;-75
2020/12/30 00:28:55;;;;;;;8.37;5.70;;;1.40;99.90;;;;;;5053853;28;20389;-74
2020/12/30 00:31:20;;;;;;;7.07;5.33;;;;;;;;;;5053895;28;20777;-73
2020/12/30 00:33:47;;;;;;;7.10;5.22;;;;;;;;;;5053650;28;20392;-74
2020/12/30 00:36:13;;;;;;;7.15;5.43;;;;;;;;;;5053780;28;20480;-73
2020/12/30 00:38:39;;;;;;;7.43;6.13;;;;;;;;;;5053629;28;20543;-74
2020/12/30 00:41:04;;;;;;;7.03;5.67;;;;;;;;;;5055582;28;20394;-74
2020/12/30 00:43:30;;;;;;;7.40;5.68;;;;;;;;;;5073339;28;20440;-73
2020/12/30 00:45:56;;;;;;;6.55;5.50;;;;;;;;;;5073641;28;20387;-72
2020/12/30 00:48:22;;;;;;;6.47;5.22;;;1.50;99.90;;;;;;5073428;28;20380;-73
2020/12/30 00:50:47;;;;;;;5.75;5.10;;;1.60;99.90;;;;;;5073536;28;20395;-73
2020/12/30 00:53:13;;;;;;;6.30;4.93;;;;;;;;;;5073272;28;20395;-73
2020/12/30 00:55:39;;;;;;;5.80;5.18;;;1.50;99.90;;;;;;5073433;28;20375;-73
2020/12/30 00:58:05;;;;;;;6.10;5.17;;;;;;;;;;5073277;28;20889;-72
2020/12/30 01:00:31;;;;;;;6.13;5.05;;;;;;;;;;5073321;28;20380;-72
2020/12/30 01:02:57;;;;;;;6.93;5.10;;;;;;;;;;5073113;28;20421;-72
2020/12/30 01:05:22;;;;;;;7.32;4.93;;;1.80;99.90;;;;;;5073289;28;20425;-72
2020/12/30 01:07:48;;;;;;;5.60;5.00;;;1.30;99.90;;;;;;5073454;28;20383;-73
2020/12/30 01:10:13;;;;;;;5.90;5.00;;;1.90;99.90;;;;;;5073300;28;20384;-73
2020/12/30 01:12:39;;;;;;;7.47;5.10;;;1.60;99.90;;;;;;5072862;28;20433;-73
2020/12/30 01:15:05;;;;;;;5.73;4.93;;;;;;;;;;5073027;28;20391;-73
2020/12/30 01:17:31;;;;;;;6.55;5.47;;;;;;;;;;5072910;28;21047;-73
2020/12/30 01:19:58;;;;;;;5.60;4.80;;;1.70;99.90;;;;;;5072451;28;20526;-73
2020/12/30 01:22:24;;;;;;;6.82;5.28;;;1.70;99.90;;;;;;5072767;28;20476;-73
2020/12/30 01:24:50;;;;;;;6.40;4.90;;;;;;;;;;5072884;28;20388;-74
2020/12/30 01:27:16;;;;;;;7.33;5.20;;;;;;;;;;5072807;28;20367;-72
2020/12/30 01:29:41;;;;;;;6.22;4.82;;;;;;;;;;5072805;28;20905;-72
2020/12/30 01:32:07;;;;;;;6.10;5.13;;;2.10;99.90;;;;;;5072556;28;20371;-73
2020/12/30 01:34:33;;;;;;;6.33;4.70;;;1.70;99.90;;;;;;5070814;28;20419;-72
2020/12/30 01:36:58;;;;;;;6.87;4.90;;;1.40;99.90;;;;;;5052628;28;20393;-72
2020/12/30 01:39:24;;;;;;;7.00;5.23;;;;;;;;;;5054227;28;20409;-72
2020/12/30 01:41:50;;;;;;;6.80;5.13;;;;;;;;;;5063134;28;20394;-72
2020/12/30 01:44:16;;;;;;;7.77;5.30;;;;;;;;;;5052336;28;20388;-72
2020/12/30 01:46:46;;;;;;;6.95;5.03;;;1.70;99.90;;;;;;5052337;28;20423;-73
2020/12/30 01:49:14;;;;;;;7.20;5.25;;;;;;;;;;5052464;28;20389;-72
2020/12/30 01:51:41;;;;;;;7.70;5.18;;;1.70;99.90;;;;;;5052478;28;20397;-73
2020/12/30 01:54:14;;;;;;;5.30;4.50;;;;;;;;;;5052132;28;20385;-71
2020/12/30 01:56:41;;;;;;;6.80;5.10;;;;;;;;;;5052226;28;20933;-73
2020/12/30 01:59:09;;;;;;;6.60;4.47;;;1.80;99.90;;;;;;5052160;28;20421;-74
2020/12/30 02:01:36;;;;;;;6.15;4.80;;;1.60;99.90;;;;;;5052175;28;20389;-75
2020/12/30 02:04:07;;;;;;;6.45;4.93;;;1.80;99.90;;;;;;5051960;28;20384;-73
2020/12/30 02:06:34;;;;;;;8.52;5.13;;;;;;;;;;5052136;28;20804;-73
2020/12/30 02:09:00;;;;;;;6.93;5.00;;;1.70;99.90;;;;;;5052048;28;20457;-74
2020/12/30 02:11:27;;;;;;;6.40;4.95;;;;;;;;;;5051980;28;20860;-75
2020/12/30 02:14:03;;;;;;;7.07;4.90;;;;;;;;;;5051654;28;20425;-74
2020/12/30 02:16:29;;;;;;;6.40;5.10;;;;;;;;;;5051882;28;20456;-74
2020/12/30 02:18:55;;;;;;;6.03;4.70;;;;;;;;;;5051737;28;21021;-74
2020/12/30 02:21:21;;;;;;;6.90;4.93;;;;;;;;;;5051938;28;20466;-74
2020/12/30 02:23:48;;;;;;;6.68;5.00;;;1.60;99.90;;;;;;5051092;28;20495;-74
2020/12/30 02:26:14;;;;;;;6.70;4.97;;;;;;;;;;5050726;28;20858;-75
2020/12/30 02:28:40;;;;;;;7.45;5.28;;;1.60;99.90;;;;;;5051639;28;20405;-75
2020/12/30 02:31:06;;;;;;;8.73;5.20;;;;;;;;;;5051617;28;20382;-76
2020/12/30 02:33:32;;;;;;;8.50;5.32;;;;;;;;;;5051280;28;20386;-77
2020/12/30 02:35:58;;;;;;;6.78;5.20;;;;;;;;;;5051523;28;20483;-75
2020/12/30 02:38:24;;;;;;;8.05;4.95;;;;;;;;;;5051308;28;20409;-75
2020/12/30 02:40:50;;;;;;;6.87;5.00;;;;;;;;;;5050422;28;20385;-76
2020/12/30 02:43:16;;;;;;;6.45;5.18;;;;;;;;;;5071185;28;20879;-75
2020/12/30 02:45:42;;;;;;;7.85;5.30;;;;;;;;;;5071399;28;20395;-75
2020/12/30 02:48:08;;;;;;;5.95;4.82;;;;;;;;;;5071246;28;20398;-75
2020/12/30 02:50:34;;;;;;;8.13;5.30;;;;;;;;;;5071184;28;20383;-75
2020/12/30 02:53:00;;;;;;;7.03;5.10;;;;;;;;;;5071057;28;20423;-75
2020/12/30 02:55:26;;;;;;;7.47;4.95;;;;;;;;;;5071027;28;20398;-75
2020/12/30 02:57:52;;;;;;;8.02;5.00;;;;;;;;;;5069691;28;20422;-75
2020/12/30 03:00:17;;;;;;;6.20;4.90;;;1.80;99.90;;;;;;5057992;28;20374;-75
2020/12/30 03:02:43;;;;;;;7.45;5.15;;;1.80;99.90;;;;;;5050800;28;20407;-75
2020/12/30 03:05:09;;;;;;;6.88;5.05;;;;;;;;;;5051007;28;20389;-74
2020/12/30 03:07:35;;;;;;;7.03;5.00;;;;;;;;;;5050867;28;20752;-74
2020/12/30 03:10:01;;;;;;;7.78;5.18;;;;;;;;;;5050832;28;20439;-76
2020/12/30 03:12:27;;;;;;;6.70;5.20;;;;;;;;;;5050676;28;20472;-75
2020/12/30 03:14:52;;;;;;;7.03;5.20;;;;;;;;;;5049496;28;20385;-76
2020/12/30 03:17:18;;;;;;;6.50;5.35;;;;;;;;;;5050756;28;20382;-76
2020/12/30 03:19:44;;;;;;;7.50;5.27;;;;;;;;;;5050738;28;20408;-76
2020/12/30 03:22:10;;;;;;;6.20;5.10;;;1.80;99.90;;;;;;5050617;28;20852;-75
2020/12/30 03:24:35;;;;;;;7.20;5.17;;;1.90;99.90;;;;;;5050656;28;20820;-76
2020/12/30 03:27:01;;;;;;;5.90;5.10;;;;;;;;;;5050552;28;20492;-76
2020/12/30 03:29:27;;;;;;;6.87;5.30;;;;;;;;;;5050678;28;20494;-76
2020/12/30 03:31:53;;;;;;;7.65;5.25;;;;;;;;;;5050670;28;20408;-74
2020/12/30 03:34:19;;;;;;;8.15;5.43;;;;;;;;;;5048306;28;20389;-75
2020/12/30 03:36:45;;;;;;;7.88;5.43;;;1.70;99.90;;;;;;5036995;28;20776;-75
2020/12/30 03:39:10;;;;;;;6.68;5.15;;;1.80;99.90;;;;;;5050493;28;20436;-75
2020/12/30 03:41:36;;;;;;;7.40;5.57;;;;;;;;;;5055765;28;20390;-75
2020/12/30 03:44:02;;;;;;;7.22;5.28;;;1.70;99.90;;;;;;5070319;28;20379;-75
2020/12/30 03:46:28;;;;;;;7.47;5.30;;;;;;;;;;5070427;28;20376;-75
2020/12/30 03:48:54;;;;;;;7.57;5.30;;;;;;;;;;5070234;28;20438;-75
2020/12/30 03:51:20;;;;;;;7.10;5.45;;;;;;;;;;5070061;28;20451;-74
2020/12/30 03:53:46;;;;;;;6.72;5.22;;;;;;;;;;5069702;28;20444;-74
2020/12/30 03:56:12;;;;;;;6.43;5.35;;;;;;;;;;5070277;28;20423;-74
2020/12/30 03:58:38;;;;;;;7.45;5.60;;;;;;;;;;5070096;28;20861;-75
2020/12/30 04:01:04;;;;;;;6.43;5.43;;;;;;;;;;5070239;28;20404;-74
2020/12/30 04:03:29;;;;;;;9.20;5.60;;;;;;;;;;5070092;28;20437;-73
2020/12/30 04:05:56;;;;;;;6.97;5.30;;;1.60;99.90;;;;;;5070245;28;20376;-75
2020/12/30 04:08:22;;;;;;;7.80;5.60;;;;;;;;;;5069955;28;20384;-75
2020/12/30 04:10:48;;;;;;;7.38;5.53;;;;;;;;;;5070135;28;20386;-75
2020/12/30 04:13:14;;;;;;;8.93;6.47;;;;;;;;;;5069872;28;20386;-75
2020/12/30 04:15:40;;;;;;;8.32;6.32;;;;;;;;;;5069922;28;20396;-75
2020/12/30 04:18:06;;;;;;;7.15;6.03;;;;;;;;;;5069980;28;20391;-74
2020/12/30 04:20:32;;;;;;;8.30;6.30;;;;;;;;;;5070080;28;20462;-74
2020/12/30 04:22:58;;;;;;;8.52;6.47;;;;;;;;;;5070177;28;20425;-74
2020/12/30 04:25:23;;;;;;;8.25;6.65;;;1.30;99.90;;;;;;5069976;28;20375;-74
2020/12/30 04:27:49;;;;;;;7.78;6.78;;;1.50;99.90;;;;;;5069946;28;20384;-75
2020/12/30 04:30:15;;;;;;;7.57;6.78;;;1.80;99.90;;;;;;5069999;28;20466;-73
2020/12/30 04:32:40;;;;;;;8.05;7.20;;;;;;;;;;5069579;28;20831;-74
2020/12/30 04:35:06;;;;;;;8.50;6.43;;;;;;;;;;5063420;28;20744;-73
2020/12/30 04:37:33;;;;;;;9.05;7.47;;;;;;;;;;5049603;28;20388;-74
2020/12/30 04:39:58;;;;;;;7.57;6.78;;;;;;;;;;5049848;28;20428;-73
2020/12/30 04:42:37;;;;;;;9.15;7.40;;;;;;;;;;5061755;28;20854;-73
2020/12/30 04:45:09;;;;;;;10.70;7.88;;;2.00;99.90;;;;;;5069901;28;20379;-74
2020/12/30 04:47:35;;;;;;;8.90;7.53;;;;;;;;;;5072780;28;20894;-75
2020/12/30 04:50:03;;;;;;;10.15;7.90;;;1.60;99.90;;;;;;5073483;28;20437;-75
2020/12/30 04:52:28;;;;;;;9.75;7.95;;;1.70;99.90;;;;;;5073199;28;20769;-74
2020/12/30 04:54:55;;;;;;;9.67;7.90;;;;;;;;;;5073537;28;20383;-73
2020/12/30 04:57:52;;;;;;;8.55;7.75;;;2.20;99.90;;;;;;5073294;28;20411;-74
2020/12/30 05:00:19;;;;;;;8.90;8.00;;;;;;;;;;5072892;28;20392;-73
2020/12/30 05:02:49;;;;;;;10.18;8.10;;;1.90;99.90;;;;;;5072857;28;20830;-73
2020/12/30 05:05:16;;;;;;;9.20;8.27;;;1.80;99.90;;;;;;5073195;28;20380;-73
2020/12/30 05:07:45;;;;;;;9.45;8.38;;;1.70;99.90;;;;;;5073016;28;20754;-73
2020/12/30 05:10:13;;;;;;;9.30;8.40;;;1.80;99.90;;;;;;5073121;28;20383;-72
2020/12/30 05:12:39;;;;;;;9.68;8.27;;;;;;;;;;5072885;28;20376;-73
2020/12/30 05:15:06;;;;;;;9.90;8.65;;;;;;;;;;5072935;28;20753;-73
2020/12/30 05:17:33;;;;;;;9.80;8.80;;;1.70;99.90;;;;;;5072978;28;20398;-73
2020/12/30 05:19:59;;;;;;;10.43;8.80;;;1.60;99.90;;;;;;5072964;28;20406;-73
2020/12/30 05:22:25;;;;;;;10.93;9.20;;;2.40;99.90;;;;;;5072658;28;20384;-73
2020/12/30 05:24:50;;;;;;;10.18;9.10;;;1.70;99.90;;;;;;5072871;28;20380;-73
2020/12/30 05:27:18;;;;;;;10.00;9.00;;;;;;;;;;5072856;28;20386;-75
2020/12/30 05:29:46;;;;;;;11.75;10.18;;;;;;;;;;5072669;28;20387;-74
2020/12/30 05:32:12;;;;;;;10.88;9.13;;;;;;;;;;5072682;28;20380;-75
2020/12/30 05:34:38;;;;;;;11.27;9.38;;;;;;;;;;5070040;28;20433;-74
2020/12/30 05:37:04;;;;;;;11.65;8.98;;;;;;;;;;5052612;28;20856;-74
2020/12/30 05:39:34;;;;;;;10.43;9.17;;;;;;;;;;5052567;28;20977;-74
2020/12/30 05:42:16;;;;;;;10.30;8.95;;;1.90;99.90;;;;;;5052495;28;20378;-73
2020/12/30 05:44:44;;;;;;;10.15;9.02;;;2.50;99.90;;;;;;5052481;28;20761;-73
2020/12/30 05:47:17;;;;;;;9.73;8.73;;;1.80;99.90;;;;;;5052549;28;20381;-73
2020/12/30 05:49:44;;;;;;;10.95;9.77;;;2.00;99.90;;;;;;5052369;28;20413;-74
2020/12/30 05:52:24;;;;;;;11.80;9.77;;;2.30;99.90;;;;;;5052341;28;20395;-74
2020/12/30 05:54:54;;;;;;;10.63;9.53;;;1.90;99.90;;;;;;5052355;28;20386;-74
2020/12/30 05:57:24;;;;;;;11.65;10.45;;;1.90;99.90;;;;;;5051470;28;20415;-73
2020/12/30 06:00:10;;;;;;;12.65;9.85;;;;;;;;;;5052069;28;20417;-74
2020/12/30 06:02:39;;;;;;;11.52;10.30;;;;;;;;;;5051811;28;20393;-73
2020/12/30 06:05:14;;;;;;;12.23;10.30;;;2.00;99.90;;;;;;5052098;28;20385;-74
2020/12/30 06:07:41;;;;;;;11.77;10.50;;;;;;;;;;5052090;28;20386;-73
2020/12/30 06:10:07;;;;;;;12.27;10.82;;;;;;;;;;5052137;28;20377;-71
2020/12/30 06:12:44;;;;;;;12.15;10.40;;;;;;;;;;5051864;28;20497;-73
2020/12/30 06:15:13;;;;;;;12.63;11.32;;;;;;;;;;5051898;28;20477;-73
2020/12/30 06:17:43;;;;;;;16.17;14.57;;;;;;;;;;5052068;28;20425;-72
2020/12/30 06:20:10;;;;;;;15.27;13.30;;;1.80;99.90;;;;;;5052042;28;20406;-72
2020/12/30 06:22:38;;;;;;;12.55;11.25;;;1.80;99.90;;;;;;5051625;28;20461;-72
2020/12/30 06:25:04;;;;;;;13.90;12.40;;;;;;;;;;5051757;28;20385;-73
2020/12/30 06:27:31;;;;;;;12.68;11.25;;;;;;;;;;5051827;28;20387;-71
2020/12/30 06:29:58;;;;;;;13.90;11.38;;;;;;;;;;5051641;28;20908;-73
2020/12/30 06:32:34;;;;;;;13.63;11.57;;;;;;;;;;5051578;28;20457;-72
2020/12/30 06:35:01;;;;;;;12.52;11.15;;;2.00;99.90;;;;;;5051598;28;20386;-71
2020/12/30 06:37:28;;;;;;;12.95;11.18;;;;;;;;;;5051600;28;20381;-72
2020/12/30 06:40:23;;;;;;;12.98;11.57;;;1.80;99.90;;;;;;5051424;28;20405;-73
2020/12/30 06:42:55;;;;;;;16.75;14.20;;;;;;;;;;5066703;28;20407;-71
2020/12/30 06:45:51;;;;;;;15.88;13.65;;;;;;;;;;5059637;28;20469;-72
2020/12/30 06:48:18;;;;;;;11.98;10.73;;;;;;;;;;5041946;28;20399;-74
2020/12/30 06:50:44;;;;;;;11.90;10.65;;;;;;;;;;5045504;28;20794;-73
2020/12/30 06:53:29;;;;;;;13.00;11.13;;;2.30;99.90;;;;;;5048059;28;20481;-73
2020/12/30 06:55:56;;;;;;;12.52;11.23;;;;;;;;;;5048110;28;20389;-74
2020/12/30 06:58:40;;;;;;;12.10;10.80;;;2.40;99.90;;;;;;5049732;28;20496;-74
2020/12/30 07:01:06;;;;;;;12.85;10.77;;;;;;;;;;5046235;28;20403;-74
2020/12/30 07:03:32;;;;;;;12.30;10.73;;;;;;;;;;5042667;28;20881;-73
2020/12/30 07:06:17;;;;;;;11.77;10.57;;;;;;;;;;5051048;28;20384;-73
2020/12/30 07:08:43;;;;;;;12.23;10.15;;;;;;;;;;5046581;28;20483;-73
2020/12/30 07:11:09;;;;;;;11.75;10.55;;;;;;;;;;5051035;28;21128;-73
2020/12/30 07:13:40;;;;;;;12.45;10.70;;;;;;;;;;5050840;28;20836;-73
2020/12/30 07:16:13;;;;;;;13.50;10.57;;;2.00;99.90;;;;;;5047944;28;20468;-73
2020/12/30 07:18:39;;;;;;;12.35;11.05;;;;;;;;;;5050650;28;20558;-73
2020/12/30 07:21:15;;;;;;;13.63;12.23;;;;;;;;;;5050842;28;20792;-73
2020/12/30 07:23:42;;;;;;;12.68;10.88;;;;;;;;;;5046502;28;20848;-74
2020/12/30 07:26:15;;;;;;;10.73;9.63;;;2.50;99.90;;;;;;5050530;28;20863;-74
2020/12/30 07:28:43;;;;;;;12.35;11.13;;;2.50;99.90;;;;;;5038339;28;20435;-74
2020/12/30 07:31:09;;;;;;;14.90;13.13;;;2.60;99.90;;;;;;5050497;28;20382;-74
2020/12/30 07:33:36;;;;;;;15.95;13.50;;;2.60;99.90;;;;;;5050406;28;20442;-73
2020/12/30 07:36:03;;;;;;;13.97;12.40;;;;;;;;;;5050529;28;20778;-73
2020/12/30 07:38:29;;;;;;;12.85;11.55;;;;;;;;;;5050461;28;20405;-74
2020/12/30 07:41:09;;;;;;;13.50;12.10;;;1.90;99.90;;;;;;5050588;28;20531;-74
2020/12/30 07:43:46;;;;;;;13.65;11.88;;;2.70;99.90;;;;;;5070413;28;20457;-74
2020/12/30 07:46:22;;;;;;;13.95;12.55;;;;;;;;;;5070353;28;20429;-74
2020/12/30 07:48:48;;;;;;;14.38;12.82;;;;;;;;;;5070437;28;20376;-74
2020/12/30 07:51:14;;;;;;;15.65;13.02;;;1.80;99.90;;;;;;5070323;28;20376;-73
2020/12/30 07:53:40;;;;;;;14.55;13.05;;;2.30;99.90;;;;;;5070266;28;20406;-74
2020/12/30 07:56:21;;;;;;;15.68;13.75;;;;;;;;;;5070342;28;20379;-74
2020/12/30 07:58:47;;;;;;;17.27;14.55;;;2.30;99.90;;;;;;5070253;28;20407;-74
2020/12/30 08:01:15;;;;;;;16.20;13.95;;;;;;;;;;5070431;28;20418;-72
2020/12/30 08:03:41;;;;;;;18.20;15.27;;;;;;;;;;5070361;28;20380;-75
2020/12/30 08:06:08;;;;;;;16.15;14.48;;;1.80;99.90;;;;;;5070523;28;20931;-77
2020/12/30 08:08:34;;;;;;;19.67;15.77;;;;;;;;;;5070337;28;20438;-74
2020/12/30 08:11:00;;;;;;;19.38;15.48;;;;;;;;;;5070271;28;20789;-74
2020/12/30 08:13:26;;;;;;;19.33;14.80;;;;;;;;;;5069919;28;20394;-74
2020/12/30 08:15:52;;;;;;;15.25;13.40;;;;;;;;;;5070150;28;20411;-74
2020/12/30 08:18:18;;;;;;;19.90;15.13;;;;;;;;;;5069836;28;20444;-74
2020/12/30 08:20:44;;;;;;;16.40;13.30;;;3.00;99.90;;;;;;5070569;28;20379;-73
2020/12/30 08:23:10;;;;;;;15.80;14.10;;;;;;;;;;5073995;28;20387;-73
2020/12/30 08:25:37;;;;;;;16.58;14.38;;;;;;;;;;5052837;28;20386;-74
2020/12/30 08:28:06;;;;;;;15.82;14.02;;;;;;;;;;5046216;28;20443;-73
2020/12/30 08:30:33;;;;;;;18.73;13.60;;;;;;;;;;5046240;28;20408;-74
2020/12/30 08:33:01;;;;;;;16.25;13.30;;;;;;;;;;5045710;28;20391;-74
2020/12/30 08:35:31;;;;;;;17.60;13.70;;;;;;;;;;5049764;28;20494;-74
2020/12/30 08:38:14;;;;;;;15.27;13.68;;;;;;;;;;5046895;28;20804;-74
2020/12/30 08:40:41;;;;;;;16.10;13.38;;;;;;;;;;5047226;28;20583;-73
2020/12/30 08:43:26;;;;;;;16.02;14.20;;;;;;;;;;5047837;28;20472;-74
2020/12/30 08:45:52;;;;;;;17.77;14.47;;;;;;;;;;5048790;28;20379;-73
2020/12/30 08:48:19;;;;;;;14.02;12.23;;;1.90;99.90;;;;;;5053181;28;20380;-74
2020/12/30 08:50:46;;;;;;;14.55;13.05;;;2.60;99.90;;;;;;5053161;28;20508;-74
2020/12/30 08:53:13;;;;;;;13.95;12.55;;;;;;;;;;5053128;28;20381;-74
2020/12/30 08:55:39;;;;;;;15.00;12.77;;;2.40;99.90;;;;;;5048422;28;20433;-74
2020/12/30 08:58:05;;;;;;;13.30;11.90;;;2.40;99.90;;;;;;5052271;28;20887;-74
2020/12/30 09:00:38;;;;;;;13.50;12.05;;;3.20;99.90;;;;;;5052588;28;20412;-74
2020/12/30 09:03:16;;;;;;;13.80;12.30;;;3.10;99.90;;;;;;5052398;28;20405;-73
2020/12/30 09:05:51;;;;;;;14.20;12.80;;;2.90;99.90;;;;;;5052604;28;20390;-74
2020/12/30 09:08:18;;;;;;;13.27;11.88;;;2.60;99.90;;;;;;5052786;28;20412;-74
2020/12/30 09:10:45;;;;;;;12.48;11.15;;;;;;;;;;5052772;28;20397;-73
2020/12/30 09:13:12;;;;;;;12.70;11.27;;;2.90;99.90;;;;;;5052592;28;20381;-74
2020/12/30 09:15:38;;;;;;;13.43;12.05;;;;;;;;;;5052827;28;20834;-74
2020/12/30 09:18:04;;;;;;;12.73;11.43;;;;;;;;;;5052713;28;20393;-74
2020/12/30 09:20:33;;;;;;;12.13;10.93;;;2.30;99.90;;;;;;5052529;28;20383;-73
2020/12/30 09:23:00;;;;;;;13.57;12.10;;;2.50;99.90;;;;;;5052259;28;20418;-74
2020/12/30 09:25:28;;;;;;;21.08;16.98;;;2.40;99.90;;;;;;5052399;28;20416;-73
2020/12/30 09:27:54;;;;;;;13.77;12.02;;;2.60;99.90;;;;;;5052399;28;20744;-74
2020/12/30 09:30:22;;;;;;;13.27;11.97;;;;;;;;;;5052420;28;20471;-74
2020/12/30 09:32:48;;;;;;;12.68;11.38;;;3.10;99.90;;;;;;5050884;28;20458;-74
2020/12/30 09:35:15;;;;;;;14.45;12.50;;;2.50;99.90;;;;;;5052368;28;20883;-74
2020/12/30 09:37:49;;;;;;;23.70;19.85;;;;;;;;;;5042013;28;20763;-74
2020/12/30 09:40:15;;;;;;;18.30;15.68;;;2.90;99.90;;;;;;5050176;28;20496;-74
2020/12/30 09:42:42;;;;;;;25.92;21.38;;;3.00;99.90;;;;;;5048585;28;20923;-74
2020/12/30 09:45:11;;;;;;;33.22;25.38;;;3.50;99.90;;;;;;5049899;28;20729;-74
2020/12/30 09:47:37;;;;;;;26.30;21.13;;;2.90;99.90;;;;;;5045242;28;20390;-74
2020/12/30 09:50:05;;;;;;;12.88;11.30;;;2.40;99.90;;;;;;5051716;28;20469;-74
2020/12/30 09:52:37;;;;;;;20.73;17.10;;;2.90;99.90;;;;;;5051596;28;20389;-74
2020/12/30 09:55:03;;;;;;;12.73;11.43;;;;;;;;;;5049295;28;20775;-74
2020/12/30 09:57:29;;;;;;;12.47;10.90;;;;;;;;;;5050839;28;20725;-74
2020/12/30 09:59:55;;;;;;;11.43;10.32;;;2.70;99.90;;;;;;5051718;28;20559;-73
2020/12/30 10:02:21;;;;;;;11.90;10.70;;;;;;;;;;5051761;28;20378;-74
2020/12/30 10:04:46;;;;;;;11.48;10.27;;;3.70;99.90;;;;;;5051751;28;20377;-74
2020/12/30 10:07:12;;;;;;;12.13;10.93;;;3.80;99.90;;;;;;5049251;28;20391;-73
2020/12/30 10:09:39;;;;;;;11.85;10.00;;;;;;;;;;5051501;28;20393;-74
2020/12/30 10:12:04;;;;;;;12.60;10.40;;;3.50;99.90;;;;;;5051590;28;20411;-73
2020/12/30 10:14:30;;;;;;;12.63;10.90;;;3.90;99.90;;;;;;5047816;28;20498;-74
2020/12/30 10:16:56;;;;;;;12.03;10.27;;;;;;;;;;5044241;28;20408;-74
2020/12/30 10:19:22;;;;;;;10.55;9.45;;;;;;;;;;5049355;28;20535;-74
2020/12/30 10:21:49;;;;;;;12.40;10.70;;;;;;;;;;5042116;28;20476;-73
2020/12/30 10:24:15;;;;;;;11.75;10.35;;;3.70;99.90;;;;;;5043084;28;20474;-74
2020/12/30 10:26:40;;;;;;;11.33;9.53;;;4.10;99.90;;;;;;5051261;28;20447;-74
2020/12/30 10:29:06;;;;;;;12.00;10.03;;;;;;;;;;5051147;28;20818;-74
2020/12/30 10:31:32;;;;;;;12.40;10.05;;;;;;;;;;5051116;28;20385;-74
2020/12/30 10:33:58;;;;;;;12.52;10.32;;;;;;;;;;5047742;28;20391;-73
2020/12/30 10:39:35;;;;;;;11.57;10.38;;;;;;;;;;5047637;28;20408;-74
2020/12/30 10:42:02;;;;;;;11.02;9.90;;;3.90;99.90;;;;;;5049616;28;20432;-73
2020/12/30 10:44:29;;;;;;;10.63;9.52;;;;;;;;;;5052428;28;20468;-74
2020/12/30 10:46:55;;;;;;;11.73;10.57;;;;;;;;;;5052324;28;20396;-74
2020/12/30 10:49:21;;;;;;;13.73;12.30;;;4.00;99.90;;;;;;5044312;28;20870;-74
2020/12/30 10:51:48;;;;;;;12.38;11.18;;;;;;;;;;5041228;28;20893;-73
2020/12/30 10:54:18;;;;;;;13.35;11.07;;;;;;;;;;5042889;28;20468;-74
2020/12/30 10:56:48;;;;;;;12.13;10.80;;;4.30;99.90;;;;;;5046608;28;20566;-73
2020/12/30 10:59:17;;;;;;;12.70;11.10;;;3.90;99.90;;;;;;5050541;28;20542;-73
2020/12/30 11:01:43;;;;;;;12.32;10.63;;;;;;;;;;5049283;28;20381;-73
2020/12/30 11:04:09;;;;;;;11.25;10.13;;;;;;;;;;5050385;28;20463;-72
2020/12/30 11:06:38;;;;;;;11.40;10.30;;;;;;;;;;5050741;28;20381;-72
2020/12/30 11:09:05;;;;;;;12.85;11.30;;;4.30;99.90;;;;;;5049160;28;20392;-74
2020/12/30 11:11:30;;;;;;;12.38;10.20;;;;;;;;;;5045771;28;20803;-74
2020/12/30 11:13:56;;;;;;;11.23;10.02;;;;;;;;;;5050143;28;20385;-74
2020/12/30 11:16:22;;;;;;;11.38;10.07;;;;;;;;;;5046481;28;20389;-73
2020/12/30 11:18:48;;;;;;;11.18;10.05;;;;;;;;;;5050254;28;20937;-74
2020/12/30 11:21:14;;;;;;;10.77;9.70;;;4.10;99.90;;;;;;5050670;28;20439;-74
2020/12/30 11:23:40;;;;;;;13.30;10.97;;;;;;;;;;5050061;28;20421;-72
2020/12/30 11:26:06;;;;;;;13.88;12.20;;;4.10;99.90;;;;;;5043806;28;20381;-72
2020/12/30 11:28:32;;;;;;;11.35;10.25;;;;;;;;;;5050146;28;20389;-73
2020/12/30 11:30:58;;;;;;;10.70;9.45;;;;;;;;;;5044262;28;20389;-74
2020/12/30 11:33:24;;;;;;;12.20;9.70;;;;;;;;;;5046238;28;20733;-73
2020/12/30 11:35:49;;;;;;;11.60;10.40;;;4.20;99.90;;;;;;5050432;28;20444;-73
2020/12/30 11:38:15;;;;;;;12.73;10.47;;;4.50;99.90;;;;;;5046223;28;20397;-74
2020/12/30 11:40:43;;;;;;;11.30;9.80;;;4.40;99.90;;;;;;5050365;28;20475;-73
2020/12/30 11:43:09;;;;;;;15.40;12.40;;;4.20;99.90;;;;;;5069030;28;20421;-73
2020/12/30 11:45:35;;;;;;;13.73;10.60;;;4.80;99.90;;;;;;5055920;28;20405;-73
2020/12/30 11:48:01;;;;;;;11.13;9.43;;;;;;;;;;5049958;28;20380;-73
2020/12/30 11:50:28;;;;;;;11.10;9.10;;;4.70;99.90;;;;;;5049981;28;20381;-73
2020/12/30 11:52:55;;;;;;;10.80;8.93;;;4.60;99.90;;;;;;5049715;28;20385;-74
2020/12/30 11:55:21;;;;;;;8.60;7.70;;;;;;;;;;5061962;28;20395;-73
2020/12/30 11:57:47;;;;;;;9.60;8.60;;;;;;;;;;5069649;28;20375;-73
2020/12/30 12:00:13;;;;;;;10.33;8.07;;;;;;;;;;5050085;28;20405;-73
2020/12/30 12:02:39;;;;;;;9.88;7.32;;;;;;;;;;5049512;28;20412;-73
2020/12/30 12:05:05;;;;;;;13.10;10.55;;;;;;;;;;5062301;28;20383;-73
2020/12/30 12:07:30;;;;;;;9.65;7.63;;;4.60;99.90;;;;;;5063909;28;20377;-74
2020/12/30 12:09:57;;;;;;;8.55;7.00;;;;;;;;;;5049846;28;20394;-74
2020/12/30 12:12:23;;;;;;;8.13;7.20;;;;;;;;;;5049398;28;20888;-74
2020/12/30 12:14:49;;;;;;;7.50;6.57;;;;;;;;;;5049663;28;20913;-74
2020/12/30 12:17:15;;;;;;;8.95;6.85;;;;;;;;;;5049509;28;20384;-74
2020/12/30 12:19:41;;;;;;;8.50;7.43;;;;;;;;;;5049748;28;20401;-74
2020/12/30 12:22:07;;;;;;;7.90;7.00;;;;;;;;;;5049260;28;20388;-72
2020/12/30 12:24:33;;;;;;;8.07;6.87;;;;;;;;;;5049594;28;20377;-73
2020/12/30 12:26:59;;;;;;;8.45;7.20;;;;;;;;;;5049504;28;20901;-73
2020/12/30 12:29:34;;;;;;;7.43;6.53;;;5.30;99.90;;;;;;5049636;28;20374;-73
2020/12/30 12:32:06;;;;;;;9.07;6.50;;;4.40;99.90;;;;;;5049475;28;20521;-72
2020/12/30 12:34:33;;;;;;;8.65;6.55;;;4.80;99.90;;;;;;5049387;28;20414;-73
2020/12/30 12:36:59;;;;;;;8.77;7.10;;;4.50;99.90;;;;;;5049396;28;20392;-74
2020/12/30 12:39:25;;;;;;;7.70;6.28;;;;;;;;;;5051356;28;20484;-73
2020/12/30 12:41:51;;;;;;;9.35;6.80;;;;;;;;;;5060022;28;20485;-74
2020/12/30 12:44:18;;;;;;;8.35;6.40;;;;;;;;;;5051264;28;20959;-74
2020/12/30 12:46:44;;;;;;;8.30;6.30;;;;;;;;;;5069395;28;20368;-72
2020/12/30 12:49:10;;;;;;;7.55;6.30;;;;;;;;;;5053975;28;20860;-73
2020/12/30 12:51:37;;;;;;;9.00;6.00;;;;;;;;;;5049274;28;20385;-73
2020/12/30 12:54:06;;;;;;;8.80;6.25;;;5.20;99.90;;;;;;5049151;28;20392;-74
2020/12/30 12:56:32;;;;;;;8.00;6.40;;;;;;;;;;5055421;28;20914;-74
2020/12/30 12:58:58;;;;;;;7.85;5.93;;;;;;;;;;5060389;28;20421;-74
2020/12/30 13:01:24;;;;;;;7.18;5.90;;;4.50;99.90;;;;;;5060817;28;20375;-74
2020/12/30 13:03:50;;;;;;;7.73;6.70;;;;;;;;;;5057701;28;20401;-74
2020/12/30 13:06:32;;;;;;;16.70;14.45;;;4.40;99.90;;;;;;5060912;28;20429;-74
2020/12/30 13:08:57;;;;;;;19.88;17.80;;;5.00;99.90;;;;;;5061458;28;20525;-74
2020/12/30 13:11:24;;;;;;;18.23;14.20;;;;;;;;;;5064247;28;20454;-74
2020/12/30 13:13:50;;;;;;;10.47;9.37;;;4.70;99.90;;;;;;5063000;28;20917;-74
2020/12/30 13:16:16;;;;;;;17.70;15.00;;;;;;;;;;5062175;28;20407;-74
2020/12/30 13:18:42;;;;;;;14.87;12.07;;;;;;;;;;5062048;28;20405;-72
2020/12/30 13:21:08;;;;;;;10.52;8.23;;;4.60;99.90;;;;;;5068746;28;20782;-73
2020/12/30 13:23:34;;;;;;;9.18;6.40;;;;;;;;;;5060375;28;20388;-73
2020/12/30 13:25:59;;;;;;;8.27;6.50;;;4.50;99.90;;;;;;5067660;28;20451;-72
2020/12/30 13:28:25;;;;;;;10.60;8.20;;;4.90;99.90;;;;;;5060422;28;20393;-73
2020/12/30 13:30:51;;;;;;;16.00;11.85;;;5.20;99.90;;;;;;5066074;28;20390;-73
2020/12/30 13:33:17;;;;;;;16.87;11.70;;;;;;;;;;5064847;28;20421;-73
2020/12/30 13:35:47;;;;;;;10.38;7.80;;;;;;;;;;5063396;28;20453;-72
2020/12/30 13:38:13;;;;;;;18.48;13.32;;;;;;;;;;5064109;28;20519;-72
2020/12/30 13:40:39;;;;;;;17.55;13.60;;;;;;;;;;5063883;28;20747;-74
2020/12/30 13:43:05;;;;;;;16.30;12.43;;;;;;;;;;5061322;28;20387;-73
2020/12/30 13:45:32;;;;;;;12.05;9.32;;;5.10;99.90;;;;;;5061668;28;20375;-73
2020/12/30 13:47:57;;;;;;;15.80;12.88;;;4.80;99.90;;;;;;5063365;28;20386;-73
2020/12/30 13:50:23;;;;;;;17.10;14.13;;;;;;;;;;5063636;28;20891;-73
2020/12/30 13:52:49;;;;;;;15.00;12.93;;;;;;;;;;5061861;28;20381;-73